createdAt,value
2023-04-18T00:00:10.403Z,624.00
2023-04-18T00:01:10.492Z,623.00
2023-04-18T00:02:10.604Z,623.00
2023-04-18T00:03:10.698Z,624.00
2023-04-18T00:04:10.767Z,618.00
2023-04-18T00:05:10.620Z,622.00
2023-04-18T00:06:10.627Z,621.00
2023-04-18T00:07:10.693Z,619.00
2023-04-18T00:08:10.828Z,620.00
2023-04-18T00:09:10.777Z,615.00
2023-04-18T00:10:10.812Z,616.00
2023-04-18T00:11:10.869Z,616.00
2023-04-18T00:12:10.890Z,619.00
2023-04-18T00:13:10.943Z,619.00
2023-04-18T00:14:11.057Z,621.00
2023-04-18T00:15:11.023Z,616.00
2023-04-18T00:16:11.030Z,614.00
2023-04-18T00:17:11.270Z,617.00
2023-04-18T00:18:11.195Z,617.00
2023-04-18T00:19:11.161Z,618.00
2023-04-18T00:20:11.287Z,614.00
2023-04-18T00:21:11.235Z,615.00
2023-04-18T00:22:11.377Z,612.00
2023-04-18T00:23:13.375Z,613.00
2023-04-18T00:24:11.458Z,613.00
2023-04-18T00:25:11.438Z,610.00
2023-04-18T00:26:11.495Z,612.00
2023-04-18T00:27:11.512Z,610.00
2023-04-18T00:28:11.530Z,616.00
2023-04-18T00:29:11.595Z,611.00
2023-04-18T00:30:11.663Z,611.00
2023-04-18T00:31:11.693Z,611.00
2023-04-18T00:32:11.713Z,612.00
2023-04-18T00:33:11.749Z,611.00
2023-04-18T00:34:11.992Z,608.00
2023-04-18T00:35:11.814Z,610.00
2023-04-18T00:36:11.853Z,609.00
2023-04-18T00:37:11.928Z,608.00
2023-04-18T00:38:11.952Z,609.00
2023-04-18T00:39:11.998Z,606.00
2023-04-18T00:40:12.005Z,612.00
2023-04-18T00:41:12.079Z,601.00
2023-04-18T00:42:12.123Z,603.00
2023-04-18T00:43:12.172Z,607.00
2023-04-18T00:44:12.313Z,602.00
2023-04-18T00:45:12.256Z,608.00
2023-04-18T00:46:12.290Z,604.00
2023-04-18T00:47:12.338Z,604.00
2023-04-18T00:48:12.382Z,607.00
2023-04-18T00:49:12.454Z,608.00
2023-04-18T00:50:12.466Z,604.00
2023-04-18T00:51:12.500Z,603.00
2023-04-18T00:52:12.600Z,600.00
2023-04-18T00:53:12.593Z,605.00
2023-04-18T00:54:12.868Z,601.00
2023-04-18T00:55:12.715Z,602.00
2023-04-18T00:56:12.769Z,602.00
2023-04-18T00:57:12.788Z,599.00
2023-04-18T00:58:12.820Z,602.00
2023-04-18T00:59:12.875Z,603.00
2023-04-18T01:00:12.933Z,600.00
2023-04-18T01:01:13.001Z,603.00
2023-04-18T01:02:13.058Z,596.00
2023-04-18T01:03:13.151Z,596.00
2023-04-18T01:04:13.465Z,601.00
2023-04-18T01:05:13.155Z,599.00
2023-04-18T01:06:13.187Z,599.00
2023-04-18T01:07:13.222Z,598.00
2023-04-18T01:08:13.281Z,593.00
2023-04-18T01:09:13.317Z,595.00
2023-04-18T01:10:13.375Z,596.00
2023-04-18T01:11:13.390Z,595.00
2023-04-18T01:12:13.432Z,599.00
2023-04-18T01:13:13.472Z,593.00
2023-04-18T01:14:13.670Z,589.00
2023-04-18T01:15:13.580Z,594.00
2023-04-18T01:16:13.622Z,594.00
2023-04-18T01:17:13.728Z,590.00
2023-04-18T01:18:13.693Z,590.00
2023-04-18T01:19:13.724Z,594.00
2023-04-18T01:20:13.791Z,593.00
2023-04-18T01:21:13.797Z,589.00
2023-04-18T01:22:13.841Z,593.00
2023-04-18T01:23:13.871Z,588.00
2023-04-18T01:24:14.118Z,592.00
2023-04-18T01:25:13.914Z,591.00
2023-04-18T01:26:13.981Z,587.00
2023-04-18T01:27:13.997Z,590.00
2023-04-18T01:28:14.082Z,591.00
2023-04-18T01:29:14.064Z,593.00
2023-04-18T01:30:14.143Z,591.00
2023-04-18T01:31:14.223Z,590.00
2023-04-18T01:32:14.191Z,587.00
2023-04-18T01:33:14.254Z,587.00
2023-04-18T01:34:14.550Z,587.00
2023-04-18T01:35:14.361Z,587.00
2023-04-18T01:36:14.358Z,585.00
2023-04-18T01:37:14.404Z,590.00
2023-04-18T01:38:14.449Z,586.00
2023-04-18T01:39:14.524Z,586.00
2023-04-18T01:40:14.570Z,585.00
2023-04-18T01:41:14.607Z,586.00
2023-04-18T01:42:14.632Z,588.00
2023-04-18T01:43:14.662Z,581.00
2023-04-18T01:44:14.813Z,585.00
2023-04-18T01:45:14.758Z,589.00
2023-04-18T01:46:14.836Z,583.00
2023-04-18T01:47:14.842Z,578.00
2023-04-18T01:48:14.872Z,583.00
2023-04-18T01:49:14.922Z,583.00
2023-04-18T01:50:14.974Z,587.00
2023-04-18T01:51:15.019Z,583.00
2023-04-18T01:52:15.056Z,588.00
2023-04-18T01:53:15.095Z,580.00
2023-04-18T01:54:15.499Z,585.00
2023-04-18T01:55:15.199Z,581.00
2023-04-18T01:56:15.220Z,577.00
2023-04-18T01:57:15.262Z,587.00
2023-04-18T01:58:15.337Z,582.00
2023-04-18T01:59:15.358Z,582.00
2023-04-18T02:00:15.386Z,581.00
2023-04-18T02:01:15.511Z,582.00
2023-04-18T02:02:15.551Z,579.00
2023-04-18T02:03:15.689Z,579.00
2023-04-18T02:04:15.762Z,581.00
2023-04-18T02:05:15.629Z,578.00
2023-04-18T02:06:15.655Z,579.00
2023-04-18T02:07:15.683Z,575.00
2023-04-18T02:08:15.728Z,580.00
2023-04-18T02:09:15.776Z,577.00
2023-04-18T02:10:15.827Z,580.00
2023-04-18T02:11:15.888Z,577.00
2023-04-18T02:12:15.924Z,574.00
2023-04-18T02:13:15.948Z,578.00
2023-04-18T02:14:16.067Z,578.00
2023-04-18T02:15:16.037Z,577.00
2023-04-18T02:16:16.119Z,577.00
2023-04-18T02:17:16.110Z,575.00
2023-04-18T02:18:16.167Z,576.00
2023-04-18T02:19:16.181Z,576.00
2023-04-18T02:20:16.197Z,577.00
2023-04-18T02:21:16.276Z,580.00
2023-04-18T02:22:16.272Z,575.00
2023-04-18T02:23:16.335Z,575.00
2023-04-18T02:24:16.376Z,573.00
2023-04-18T02:25:16.442Z,576.00
2023-04-18T02:26:16.470Z,573.00
2023-04-18T02:27:16.496Z,571.00
2023-04-18T02:28:16.538Z,573.00
2023-04-18T02:29:16.575Z,578.00
2023-04-18T02:30:16.634Z,573.00
2023-04-18T02:31:16.706Z,567.00
2023-04-18T02:32:16.734Z,572.00
2023-04-18T02:33:16.727Z,568.00
2023-04-18T02:34:16.779Z,573.00
2023-04-18T02:35:16.853Z,569.00
2023-04-18T02:36:16.880Z,570.00
2023-04-18T02:37:16.933Z,570.00
2023-04-18T02:38:16.955Z,576.00
2023-04-18T02:39:17.011Z,571.00
2023-04-18T02:40:17.062Z,572.00
2023-04-18T02:41:17.086Z,571.00
2023-04-18T02:42:17.126Z,568.00
2023-04-18T02:43:17.174Z,569.00
2023-04-18T02:44:17.190Z,569.00
2023-04-18T02:45:17.272Z,567.00
2023-04-18T02:46:17.363Z,569.00
2023-04-18T02:47:17.335Z,569.00
2023-04-18T02:48:17.418Z,563.00
2023-04-18T02:49:17.407Z,570.00
2023-04-18T02:50:17.479Z,564.00
2023-04-18T02:51:17.492Z,567.00
2023-04-18T02:52:17.556Z,565.00
2023-04-18T02:53:17.615Z,562.00
2023-04-18T02:54:17.635Z,561.00
2023-04-18T02:55:17.671Z,566.00
2023-04-18T02:56:17.726Z,563.00
2023-04-18T02:57:17.744Z,564.00
2023-04-18T02:58:17.786Z,566.00
2023-04-18T02:59:17.808Z,560.00
2023-04-18T03:00:17.837Z,564.00
2023-04-18T03:01:17.941Z,562.00
2023-04-18T03:02:18.001Z,561.00
2023-04-18T03:03:18.034Z,561.00
2023-04-18T03:04:18.062Z,566.00
2023-04-18T03:05:18.088Z,558.00
2023-04-18T03:06:18.167Z,564.00
2023-04-18T03:07:18.132Z,556.00
2023-04-18T03:08:18.196Z,564.00
2023-04-18T03:09:18.223Z,560.00
2023-04-18T03:10:18.275Z,562.00
2023-04-18T03:11:18.332Z,558.00
2023-04-18T03:12:18.379Z,557.00
2023-04-18T03:13:18.422Z,562.00
2023-04-18T03:14:18.451Z,556.00
2023-04-18T03:15:18.475Z,563.00
2023-04-18T03:16:18.609Z,561.00
2023-04-18T03:17:18.599Z,557.00
2023-04-18T03:18:18.649Z,563.00
2023-04-18T03:19:18.668Z,560.00
2023-04-18T03:20:18.718Z,563.00
2023-04-18T03:21:18.754Z,561.00
2023-04-18T03:22:18.811Z,557.00
2023-04-18T03:23:18.860Z,555.00
2023-04-18T03:24:18.867Z,554.00
2023-04-18T03:25:18.935Z,554.00
2023-04-18T03:26:18.989Z,559.00
2023-04-18T03:27:19.006Z,563.00
2023-04-18T03:28:19.037Z,556.00
2023-04-18T03:29:19.063Z,559.00
2023-04-18T03:30:19.150Z,557.00
2023-04-18T03:31:19.177Z,556.00
2023-04-18T03:32:19.252Z,555.00
2023-04-18T03:33:19.262Z,557.00
2023-04-18T03:34:19.301Z,556.00
2023-04-18T03:35:19.340Z,553.00
2023-04-18T03:36:19.381Z,551.00
2023-04-18T03:37:19.404Z,557.00
2023-04-18T03:38:19.468Z,552.00
2023-04-18T03:39:19.508Z,554.00
2023-04-18T03:40:19.568Z,553.00
2023-04-18T03:41:19.587Z,550.00
2023-04-18T03:42:19.661Z,550.00
2023-04-18T03:43:19.691Z,552.00
2023-04-18T03:44:19.745Z,550.00
2023-04-18T03:45:19.800Z,555.00
2023-04-18T03:46:19.848Z,551.00
2023-04-18T03:47:19.931Z,551.00
2023-04-18T03:48:19.899Z,548.00
2023-04-18T03:49:19.949Z,551.00
2023-04-18T03:50:20.002Z,548.00
2023-04-18T03:51:20.049Z,547.00
2023-04-18T03:52:20.085Z,547.00
2023-04-18T03:53:20.148Z,552.00
2023-04-18T03:54:20.167Z,546.00
2023-04-18T03:55:20.226Z,547.00
2023-04-18T03:56:20.261Z,549.00
2023-04-18T03:57:20.294Z,547.00
2023-04-18T03:58:21.201Z,550.00
2023-04-18T03:59:20.385Z,546.00
2023-04-18T04:00:20.399Z,546.00
2023-04-18T04:01:20.465Z,549.00
2023-04-18T04:02:20.686Z,546.00
2023-04-18T04:03:20.648Z,545.00
2023-04-18T04:04:20.721Z,546.00
2023-04-18T04:05:20.622Z,543.00
2023-04-18T04:06:20.663Z,543.00
2023-04-18T04:07:20.705Z,546.00
2023-04-18T04:08:20.760Z,541.00
2023-04-18T04:09:20.826Z,541.00
2023-04-18T04:10:20.852Z,543.00
2023-04-18T04:11:20.877Z,542.00
2023-04-18T04:12:20.900Z,540.00
2023-04-18T04:13:21.001Z,545.00
2023-04-18T04:14:21.005Z,542.00
2023-04-18T04:15:21.024Z,543.00
2023-04-18T04:16:21.075Z,541.00
2023-04-18T04:17:21.093Z,540.00
2023-04-18T04:18:21.157Z,544.00
2023-04-18T04:19:21.172Z,538.00
2023-04-18T04:20:21.254Z,539.00
2023-04-18T04:21:21.322Z,541.00
2023-04-18T04:22:21.341Z,541.00
2023-04-18T04:23:21.390Z,545.00
2023-04-18T04:24:21.390Z,541.00
2023-04-18T04:25:21.465Z,544.00
2023-04-18T04:26:21.498Z,541.00
2023-04-18T04:27:21.552Z,542.00
2023-04-18T04:28:21.573Z,535.00
2023-04-18T04:29:21.651Z,538.00
2023-04-18T04:30:21.664Z,539.00
2023-04-18T04:31:21.752Z,540.00
2023-04-18T04:32:21.737Z,541.00
2023-04-18T04:33:21.804Z,533.00
2023-04-18T04:34:21.825Z,536.00
2023-04-18T04:35:21.868Z,541.00
2023-04-18T04:36:21.882Z,534.00
2023-04-18T04:37:21.914Z,539.00
2023-04-18T04:38:21.978Z,536.00
2023-04-18T04:39:22.008Z,533.00
2023-04-18T04:40:22.053Z,536.00
2023-04-18T04:41:22.096Z,533.00
2023-04-18T04:42:22.116Z,536.00
2023-04-18T04:43:22.184Z,536.00
2023-04-18T04:44:22.274Z,537.00
2023-04-18T04:45:22.269Z,535.00
2023-04-18T04:46:22.284Z,533.00
2023-04-18T04:47:22.359Z,535.00
2023-04-18T04:48:22.400Z,534.00
2023-04-18T04:49:22.387Z,536.00
2023-04-18T04:50:22.475Z,535.00
2023-04-18T04:51:22.504Z,530.00
2023-04-18T04:52:22.552Z,535.00
2023-04-18T04:53:22.583Z,530.00
2023-04-18T04:54:22.671Z,532.00
2023-04-18T04:55:22.692Z,532.00
2023-04-18T04:56:22.709Z,529.00
2023-04-18T04:57:23.389Z,532.00
2023-04-18T04:58:22.781Z,528.00
2023-04-18T04:59:22.837Z,532.00
2023-04-18T05:00:22.859Z,531.00
2023-04-18T05:01:23.122Z,531.00
2023-04-18T05:02:23.048Z,530.00
2023-04-18T05:03:23.246Z,530.00
2023-04-18T05:04:23.213Z,529.00
2023-04-18T05:05:23.095Z,534.00
2023-04-18T05:06:23.128Z,529.00
2023-04-18T05:07:23.171Z,526.00
2023-04-18T05:08:23.204Z,527.00
2023-04-18T05:09:23.257Z,532.00
2023-04-18T05:10:23.321Z,530.00
2023-04-18T05:11:23.329Z,525.00
2023-04-18T05:12:23.356Z,532.00
2023-04-18T05:13:23.380Z,529.00
2023-04-18T05:14:23.440Z,525.00
2023-04-18T05:15:23.524Z,529.00
2023-04-18T05:16:23.531Z,523.00
2023-04-18T05:17:23.573Z,527.00
2023-04-18T05:18:23.625Z,526.00
2023-04-18T05:19:23.650Z,531.00
2023-04-18T05:20:23.706Z,522.00
2023-04-18T05:21:23.742Z,526.00
2023-04-18T05:22:23.759Z,527.00
2023-04-18T05:23:23.830Z,530.00
2023-04-18T05:24:23.886Z,523.00
2023-04-18T05:25:23.952Z,526.00
2023-04-18T05:26:23.988Z,526.00
2023-04-18T05:27:40.198Z,522.00
2023-04-18T05:28:43.349Z,500.00
2023-04-18T05:29:43.369Z,500.00
2023-04-18T05:30:43.402Z,500.00
2023-04-18T05:31:43.314Z,500.00
2023-04-18T05:32:43.371Z,500.00
2023-04-18T05:33:43.341Z,500.00
2023-04-18T05:34:43.356Z,501.00
2023-04-18T05:35:43.297Z,505.00
2023-04-18T05:36:43.323Z,501.00
2023-04-18T05:37:43.304Z,503.00
2023-04-18T05:38:43.317Z,500.00
2023-04-18T05:39:43.330Z,503.00
2023-04-18T05:40:43.306Z,502.00
2023-04-18T05:41:43.274Z,508.00
2023-04-18T05:42:43.291Z,507.00
2023-04-18T05:43:48.256Z,505.00
2023-04-18T05:44:44.332Z,506.00
2023-04-18T05:45:43.251Z,506.00
2023-04-18T05:46:43.322Z,507.00
2023-04-18T05:47:43.286Z,503.00
2023-04-18T05:48:43.235Z,506.00
2023-04-18T05:49:43.240Z,504.00
2023-04-18T05:50:43.231Z,506.00
2023-04-18T05:51:43.218Z,503.00
2023-04-18T05:52:43.276Z,504.00
2023-04-18T05:53:43.210Z,500.00
2023-04-18T05:54:43.188Z,501.00
2023-04-18T05:55:43.174Z,505.00
2023-04-18T05:56:43.183Z,510.00
2023-04-18T05:57:43.175Z,510.00
2023-04-18T05:58:43.278Z,518.00
2023-04-18T05:59:43.229Z,536.00
2023-04-18T06:00:43.206Z,540.00
2023-04-18T06:01:43.240Z,542.00
2023-04-18T06:02:43.436Z,549.00
2023-04-18T06:03:43.544Z,550.00
2023-04-18T06:04:43.360Z,554.00
2023-04-18T06:05:43.374Z,569.00
2023-04-18T06:06:43.307Z,576.00
2023-04-18T06:07:43.366Z,576.00
2023-04-18T06:08:43.295Z,591.00
2023-04-18T06:09:43.302Z,595.00
2023-04-18T06:10:43.292Z,598.00
2023-04-18T06:11:43.261Z,610.00
2023-04-18T06:12:44.044Z,617.00
2023-04-18T06:13:43.299Z,630.00
2023-04-18T06:14:43.425Z,619.00
2023-04-18T06:15:44.060Z,622.00
2023-04-18T06:16:43.549Z,632.00
2023-04-18T06:17:43.489Z,643.00
2023-04-18T06:18:43.476Z,644.00
2023-04-18T06:19:43.708Z,648.00
2023-04-18T06:20:43.599Z,655.00
2023-04-18T06:21:43.683Z,659.00
2023-04-18T06:22:43.788Z,683.00
2023-04-18T06:23:43.808Z,683.00
2023-04-18T06:24:43.848Z,685.00
2023-04-18T06:25:44.270Z,715.00
2023-04-18T06:26:44.993Z,737.00
2023-04-18T06:27:44.050Z,773.00
2023-04-18T06:28:44.217Z,773.00
2023-04-18T06:29:44.233Z,765.00
2023-04-18T06:30:44.284Z,777.00
2023-04-18T06:31:44.358Z,780.00
2023-04-18T06:32:44.548Z,805.00
2023-04-18T06:33:44.426Z,822.00
2023-04-18T06:34:44.502Z,830.00
2023-04-18T06:35:44.561Z,829.00
2023-04-18T06:36:44.592Z,840.00
2023-04-18T06:37:44.727Z,854.00
2023-04-18T06:38:44.695Z,864.00
2023-04-18T06:39:44.784Z,856.00
2023-04-18T06:40:44.845Z,874.00
2023-04-18T06:41:44.880Z,886.00
2023-04-18T06:42:44.934Z,902.00
2023-04-18T06:43:59.620Z,902.00
2023-04-18T06:44:45.998Z,903.00
2023-04-18T06:45:45.158Z,907.00
2023-04-18T06:46:45.061Z,914.00
2023-04-18T06:47:45.046Z,913.00
2023-04-18T06:48:44.972Z,908.00
2023-04-18T06:49:44.958Z,908.00
2023-04-18T06:50:44.971Z,900.00
2023-04-18T06:51:44.937Z,897.00
2023-04-18T06:52:44.984Z,897.00
2023-04-18T06:53:44.975Z,877.00
2023-04-18T06:54:45.024Z,854.00
2023-04-18T06:55:45.082Z,857.00
2023-04-18T06:56:45.177Z,864.00
2023-04-18T06:57:45.205Z,877.00
2023-04-18T06:58:45.259Z,891.00
2023-04-18T06:59:45.313Z,909.00
2023-04-18T07:00:45.354Z,914.00
2023-04-18T07:01:45.468Z,910.00
2023-04-18T07:02:45.694Z,921.00
2023-04-18T07:03:45.573Z,918.00
2023-04-18T07:04:45.566Z,930.00
2023-04-18T07:05:45.554Z,918.00
2023-04-18T07:06:45.622Z,922.00
2023-04-18T07:07:45.866Z,913.00
2023-04-18T07:08:45.695Z,914.00
2023-04-18T07:09:45.732Z,899.00
2023-04-18T07:10:45.830Z,915.00
2023-04-18T07:11:46.074Z,894.00
2023-04-18T07:12:45.869Z,882.00
2023-04-18T07:13:45.914Z,864.00
2023-04-18T07:14:45.958Z,888.00
2023-04-18T07:15:46.039Z,877.00
2023-04-18T07:16:46.110Z,894.00
2023-04-18T07:17:46.116Z,892.00
2023-04-18T07:18:46.135Z,891.00
2023-04-18T07:19:46.258Z,873.00
2023-04-18T07:20:46.255Z,869.00
2023-04-18T07:21:46.324Z,870.00
2023-04-18T07:22:46.350Z,862.00
2023-04-18T07:23:46.390Z,858.00
2023-04-18T07:24:46.404Z,842.00
2023-04-18T07:25:46.495Z,833.00
2023-04-18T07:26:46.454Z,830.00
2023-04-18T07:27:46.564Z,834.00
2023-04-18T07:28:46.587Z,833.00
2023-04-18T07:29:46.650Z,811.00
2023-04-18T07:30:46.994Z,820.00
2023-04-18T07:31:46.672Z,834.00
2023-04-18T07:32:46.740Z,825.00
2023-04-18T07:33:46.741Z,830.00
2023-04-18T07:34:46.815Z,828.00
2023-04-18T07:35:46.848Z,828.00
2023-04-18T07:36:46.865Z,817.00
2023-04-18T07:37:46.877Z,829.00
2023-04-18T07:38:46.878Z,838.00
2023-04-18T07:39:46.934Z,845.00
2023-04-18T07:40:47.188Z,860.00
2023-04-18T07:41:47.081Z,841.00
2023-04-18T07:42:47.107Z,854.00
2023-04-18T07:43:47.097Z,849.00
2023-04-18T07:44:47.170Z,846.00
2023-04-18T07:45:47.716Z,830.00
2023-04-18T07:46:47.333Z,802.00
2023-04-18T07:47:47.358Z,791.00
2023-04-18T07:48:47.365Z,768.00
2023-04-18T07:49:47.412Z,760.00
2023-04-18T07:50:47.495Z,749.00
2023-04-18T07:51:47.565Z,734.00
2023-04-18T07:52:47.594Z,712.00
2023-04-18T07:53:47.688Z,695.00
2023-04-18T07:54:47.731Z,681.00
2023-04-18T07:55:47.839Z,674.00
2023-04-18T07:56:47.988Z,685.00
2023-04-18T07:57:47.949Z,667.00
2023-04-18T07:58:47.990Z,659.00
2023-04-18T07:59:48.079Z,657.00
2023-04-18T08:00:48.126Z,658.00
2023-04-18T08:01:48.152Z,652.00
2023-04-18T08:02:48.344Z,649.00
2023-04-18T08:03:48.428Z,643.00
2023-04-18T08:04:48.406Z,651.00
2023-04-18T08:05:48.406Z,646.00
2023-04-18T08:06:48.553Z,640.00
2023-04-18T08:07:48.525Z,638.00
2023-04-18T08:08:48.567Z,632.00
2023-04-18T08:09:48.642Z,627.00
2023-04-18T08:10:48.681Z,626.00
2023-04-18T08:11:48.720Z,614.00
2023-04-18T08:12:48.741Z,611.00
2023-04-18T08:13:48.808Z,614.00
2023-04-18T08:14:48.830Z,609.00
2023-04-18T08:15:48.821Z,603.00
2023-04-18T08:16:48.852Z,593.00
2023-04-18T08:17:48.910Z,602.00
2023-04-18T08:18:48.848Z,594.00
2023-04-18T08:19:48.867Z,587.00
2023-04-18T08:20:48.851Z,585.00
2023-04-18T08:21:48.835Z,562.00
2023-04-18T08:23:05.268Z,576.00
2023-04-18T08:23:49.834Z,577.00
2023-04-18T08:25:03.785Z,578.00
2023-04-18T08:25:49.826Z,577.00
2023-04-18T08:26:48.821Z,577.00
2023-04-18T08:27:48.799Z,574.00
2023-04-18T08:28:48.800Z,563.00
2023-04-18T08:29:48.776Z,571.00
2023-04-18T08:30:48.810Z,567.00
2023-04-18T08:31:48.840Z,492.00
2023-04-18T08:32:48.781Z,519.00
2023-04-18T08:33:48.767Z,504.00
2023-04-18T08:34:48.731Z,499.00
2023-04-18T08:35:48.785Z,519.00
2023-04-18T08:36:48.724Z,571.00
2023-04-18T08:37:48.918Z,595.00
2023-04-18T08:38:48.891Z,563.00
2023-04-18T08:39:48.765Z,477.00
2023-04-18T08:40:48.772Z,487.00
2023-04-18T08:41:49.122Z,495.00
2023-04-18T08:42:48.965Z,502.00
2023-04-18T08:43:48.746Z,516.00
2023-04-18T08:44:48.776Z,547.00
2023-04-18T08:45:48.787Z,571.00
2023-04-18T08:46:49.145Z,590.00
2023-04-18T08:47:48.808Z,624.00
2023-04-18T08:48:48.833Z,639.00
2023-04-18T08:49:48.899Z,643.00
2023-04-18T08:50:49.051Z,592.00
2023-04-18T08:51:49.168Z,653.00
2023-04-18T08:52:49.107Z,665.00
2023-04-18T08:53:56.102Z,665.00
2023-04-18T08:54:49.095Z,665.00
2023-04-18T08:55:49.084Z,668.00
2023-04-18T08:56:49.053Z,673.00
2023-04-18T08:57:49.054Z,681.00
2023-04-18T08:58:49.023Z,683.00
2023-04-18T08:59:50.959Z,694.00
2023-04-18T09:00:49.064Z,720.00
2023-04-18T09:01:49.018Z,731.00
2023-04-18T09:02:49.184Z,742.00
2023-04-18T09:03:49.057Z,737.00
2023-04-18T09:04:49.038Z,748.00
2023-04-18T09:05:49.072Z,776.00
2023-04-18T09:06:49.048Z,757.00
2023-04-18T09:07:49.027Z,784.00
2023-04-18T09:08:49.104Z,818.00
2023-04-18T09:09:49.241Z,824.00
2023-04-18T09:10:49.246Z,806.00
2023-04-18T09:11:49.298Z,816.00
2023-04-18T09:12:49.335Z,843.00
2023-04-18T09:13:49.424Z,879.00
2023-04-18T09:14:49.466Z,892.00
2023-04-18T09:15:49.478Z,897.00
2023-04-18T09:16:49.639Z,922.00
2023-04-18T09:17:49.644Z,945.00
2023-04-18T09:18:50.710Z,942.00
2023-04-18T09:19:49.663Z,974.00
2023-04-18T09:20:49.727Z,986.00
2023-04-18T09:21:49.772Z,1001.00
2023-04-18T09:22:49.805Z,1039.00
2023-04-18T09:23:49.848Z,1068.00
2023-04-18T09:24:49.868Z,1073.00
2023-04-18T09:25:50.022Z,1080.00
2023-04-18T09:26:50.119Z,1076.00
2023-04-18T09:27:49.979Z,1112.00
2023-04-18T09:28:50.826Z,1131.00
2023-04-18T09:29:50.035Z,1151.00
2023-04-18T09:30:50.116Z,1154.00
2023-04-18T09:31:50.164Z,1204.00
2023-04-18T09:32:50.125Z,1229.00
2023-04-18T09:33:50.076Z,1243.00
2023-04-18T09:34:50.113Z,1251.00
2023-04-18T09:35:50.109Z,1265.00
2023-04-18T09:36:50.160Z,1276.00
2023-04-18T09:37:50.116Z,1364.00
2023-04-18T09:38:50.172Z,1404.00
2023-04-18T09:39:50.214Z,1391.00
2023-04-18T09:40:50.126Z,1389.00
2023-04-18T09:41:50.762Z,1365.00
2023-04-18T09:42:50.170Z,1374.00
2023-04-18T09:43:50.232Z,1364.00
2023-04-18T09:44:50.208Z,1324.00
2023-04-18T09:45:50.229Z,1284.00
2023-04-18T09:46:50.248Z,1252.00
2023-04-18T09:47:50.241Z,1250.00
2023-04-18T09:48:50.191Z,1259.00
2023-04-18T09:49:50.239Z,1278.00
2023-04-18T09:50:50.202Z,1273.00
2023-04-18T09:51:50.669Z,1277.00
2023-04-18T09:52:50.219Z,1304.00
2023-04-18T09:53:50.293Z,1311.00
2023-04-18T09:54:50.235Z,1338.00
2023-04-18T09:55:50.233Z,1346.00
2023-04-18T09:56:50.650Z,1353.00
2023-04-18T09:57:50.244Z,1370.00
2023-04-18T09:58:50.249Z,1422.00
2023-04-18T09:59:50.330Z,1440.00
2023-04-18T10:00:50.227Z,1431.00
2023-04-18T10:01:50.277Z,1444.00
2023-04-18T10:02:50.463Z,1451.00
2023-04-18T10:03:50.305Z,1481.00
2023-04-18T10:04:50.332Z,1490.00
2023-04-18T10:05:50.290Z,1509.00
2023-04-18T10:06:50.653Z,1526.00
2023-04-18T10:07:50.258Z,1547.00
2023-04-18T10:08:50.263Z,1561.00
2023-04-18T10:09:50.255Z,1583.00
2023-04-18T10:10:50.277Z,1584.00
2023-04-18T10:11:50.241Z,1595.00
2023-04-18T10:12:50.239Z,1616.00
2023-04-18T10:13:50.271Z,1632.00
2023-04-18T10:14:50.251Z,1637.00
2023-04-18T10:15:50.308Z,1649.00
2023-04-18T10:16:50.664Z,1664.00
2023-04-18T10:18:02.687Z,1672.00
2023-04-18T10:18:51.282Z,1673.00
2023-04-18T10:19:50.269Z,1678.00
2023-04-18T10:20:50.264Z,1684.00
2023-04-18T10:21:50.254Z,1709.00
2023-04-18T10:22:50.237Z,1733.00
2023-04-18T10:23:50.285Z,1745.00
2023-04-18T10:24:50.296Z,1747.00
2023-04-18T10:25:50.206Z,1755.00
2023-04-18T10:26:50.326Z,1742.00
2023-04-18T10:27:50.222Z,1752.00
2023-04-18T10:28:50.206Z,1757.00
2023-04-18T10:29:50.204Z,1792.00
2023-04-18T10:30:50.195Z,1803.00
2023-04-18T10:31:50.224Z,1805.00
2023-04-18T10:32:50.233Z,1823.00
2023-04-18T10:34:03.332Z,1826.00
2023-04-18T10:34:51.318Z,1827.00
2023-04-18T10:35:50.147Z,1828.00
2023-04-18T10:36:50.671Z,1828.00
2023-04-18T10:37:50.143Z,1818.00
2023-04-18T10:38:50.140Z,1821.00
2023-04-18T10:39:50.157Z,1815.00
2023-04-18T10:40:50.162Z,1812.00
2023-04-18T10:41:51.011Z,1809.00
2023-04-18T10:42:50.160Z,1798.00
2023-04-18T10:43:50.107Z,1749.00
2023-04-18T10:44:50.111Z,1658.00
2023-04-18T10:45:50.174Z,1576.00
2023-04-18T10:46:50.141Z,1582.00
2023-04-18T10:47:50.147Z,1561.00
2023-04-18T10:48:50.073Z,1527.00
2023-04-18T10:49:50.075Z,1505.00
2023-04-18T10:50:50.047Z,1479.00
2023-04-18T10:51:50.145Z,1466.00
2023-04-18T10:52:50.060Z,1450.00
2023-04-18T10:53:50.054Z,1430.00
2023-04-18T10:54:50.050Z,1428.00
2023-04-18T10:55:50.042Z,1415.00
2023-04-18T10:56:50.031Z,1404.00
2023-04-18T10:57:50.079Z,1409.00
2023-04-18T10:58:50.077Z,1404.00
2023-04-18T10:59:50.122Z,1400.00
2023-04-18T11:00:50.166Z,1387.00
2023-04-18T11:01:50.205Z,1380.00
2023-04-18T11:02:50.343Z,1366.00
2023-04-18T11:03:50.282Z,1358.00
2023-04-18T11:04:50.261Z,1363.00
2023-04-18T11:05:50.289Z,1351.00
2023-04-18T11:06:50.345Z,1344.00
2023-04-18T11:07:50.309Z,1347.00
2023-04-18T11:08:50.353Z,1340.00
2023-04-18T11:09:50.423Z,1319.00
2023-04-18T11:10:50.416Z,1319.00
2023-04-18T11:11:50.481Z,1324.00
2023-04-18T11:12:50.519Z,1304.00
2023-04-18T11:13:50.527Z,1303.00
2023-04-18T11:14:50.554Z,1295.00
2023-04-18T11:15:50.600Z,1306.00
2023-04-18T11:16:50.759Z,1295.00
2023-04-18T11:17:50.715Z,1287.00
2023-04-18T11:18:50.687Z,1289.00
2023-04-18T11:19:50.734Z,1283.00
2023-04-18T11:20:50.790Z,1270.00
2023-04-18T11:21:50.789Z,1274.00
2023-04-18T11:22:50.811Z,1275.00
2023-04-18T11:23:50.885Z,1276.00
2023-04-18T11:24:50.884Z,1251.00
2023-04-18T11:25:50.944Z,1261.00
2023-04-18T11:26:51.184Z,1244.00
2023-04-18T11:27:51.018Z,1261.00
2023-04-18T11:28:51.015Z,1237.00
2023-04-18T11:29:51.073Z,1257.00
2023-04-18T11:30:51.118Z,1237.00
2023-04-18T11:31:51.223Z,1224.00
2023-04-18T11:32:51.240Z,1235.00
2023-04-18T11:33:51.258Z,1230.00
2023-04-18T11:34:51.288Z,1230.00
2023-04-18T11:35:51.338Z,1228.00
2023-04-18T11:36:51.686Z,1218.00
2023-04-18T11:37:51.467Z,1218.00
2023-04-18T11:38:51.439Z,1213.00
2023-04-18T11:39:51.494Z,1217.00
2023-04-18T11:40:51.633Z,1200.00
2023-04-18T11:41:51.563Z,1204.00
2023-04-18T11:42:51.609Z,1206.00
2023-04-18T11:43:51.645Z,1188.00
2023-04-18T11:44:51.692Z,1197.00
2023-04-18T11:45:51.767Z,1199.00
2023-04-18T11:46:51.782Z,1197.00
2023-04-18T11:47:51.895Z,1204.00
2023-04-18T11:48:51.868Z,1199.00
2023-04-18T11:49:51.950Z,1180.00
2023-04-18T11:50:51.929Z,1180.00
2023-04-18T11:51:51.970Z,1176.00
2023-04-18T11:52:52.039Z,1175.00
2023-04-18T11:53:52.102Z,1187.00
2023-04-18T11:54:52.160Z,1180.00
2023-04-18T11:55:52.207Z,1179.00
2023-04-18T11:56:52.248Z,1188.00
2023-04-18T11:57:52.277Z,1181.00
2023-04-18T11:58:52.320Z,1168.00
2023-04-18T11:59:52.376Z,1170.00
2023-04-18T12:00:52.487Z,1173.00
2023-04-18T12:01:53.157Z,1174.00
2023-04-18T12:02:52.629Z,1153.00
2023-04-18T12:03:52.741Z,1163.00
2023-04-18T12:04:52.882Z,1149.00
2023-04-18T12:05:52.891Z,1151.00
2023-04-18T12:06:52.793Z,1149.00
2023-04-18T12:07:52.799Z,1149.00
2023-04-18T12:08:54.069Z,1149.00
2023-04-18T12:09:52.853Z,1154.00
2023-04-18T12:10:52.936Z,1144.00
2023-04-18T12:11:52.974Z,1144.00
2023-04-18T12:12:53.043Z,1144.00
2023-04-18T12:13:53.080Z,1145.00
2023-04-18T12:14:53.108Z,1136.00
2023-04-18T12:15:53.203Z,1143.00
2023-04-18T12:16:53.221Z,1131.00
2023-04-18T12:17:53.294Z,1124.00
2023-04-18T12:18:53.329Z,1128.00
2023-04-18T12:19:53.372Z,1123.00
2023-04-18T12:20:53.423Z,1121.00
2023-04-18T12:21:53.502Z,1130.00
2023-04-18T12:22:53.622Z,1128.00